Nearby METAR Reports

 

KAVP - Avoca/Wilkes B., Pennsylvania, USA
Distance from station: N 16mi, 25km
Updated: 09/30/2020 11:54am
Partly cloudy
Partly cloudy
 Wind from WSW
Wind: WSW 12 mph , 19 km/h, Gust: 22 mph , 35 km/h
Temperature: 61°F , 16°C
Dew Point: 46°F , 8°C
Humidity: 59%
Barometer: 29.75 inHg , 1007.5 hPa
Clouds: Partly cloudy
Visibility: 10 miles , 16 km
Cloud details: Few Clouds 3400 ft
Partly cloudy 4500 ft
2020/09/30 15:54 KAVP 301554Z 24010G19KT 10SM FEW034 SCT045 16/08 A2975 RMK AO2 PK WND 25026/1529 SLP072 T01610083
KMPO - Mt. Pocono, Pennsylvania, USA
Distance from station: E 20mi, 33km
Updated: 09/30/2020 12:02pm
Partly cloudy
Partly cloudy
 Wind from WSW
Wind: WSW 18 mph , 30 km/h, Gust: 29 mph , 46 km/h
Temperature: 55°F , 13°C
Dew Point: 45°F , 7°C
Humidity: 67%
Barometer: 29.75 inHg , 1007.5 hPa
Clouds: Partly cloudy
Visibility: 10 miles , 16 km
Cloud details: Partly cloudy 2900 ft
2020/09/30 16:02 KMPO 301602Z AUTO 25016G25KT 10SM SCT029 13/07 A2975 RMK AO2 T01330067
 
KABE - Allentown, Pennsylvania, USA
Distance from station: SSE 36mi, 58km
Updated: 09/30/2020 11:51am
Mostly cloudy
Mostly cloudy
 Wind from W
Wind: W 14 mph , 22 km/h, Gust: 22 mph , 35 km/h
Temperature: 63°F , 17°C
Dew Point: 48°F , 9°C
Humidity: 59%
Barometer: 29.77 inHg , 1008.1 hPa
Clouds: Mostly cloudy
Visibility: 10 miles , 16 km
Cloud details: Mostly cloudy 3700 ft
Mostly cloudy 4700 ft
2020/09/30 15:51 KABE 301551Z 28012G19KT 10SM BKN037 BKN047 17/09 A2977 RMK AO2 SLP079 T01670089
KXLL - Allentown Queen, Pennsylvania, USA
Distance from station: SSE 41mi, 65km
Updated: 09/30/2020 12:15pm
Partly cloudy
Partly cloudy
 Wind from WSW
Wind: WSW 10 mph , 17 km/h, Gust: 18 mph , 30 km/h
Temperature: 64°F , 18°C
Dew Point: 50°F , 10°C
Humidity: 60%
Barometer: 29.79 inHg , 1008.8 hPa
Clouds: Partly cloudy
Visibility: 10 miles , 16 km
Cloud details: Partly cloudy 3800 ft
2020/09/30 16:15 KXLL 301615Z AUTO 24009G16KT 10SM SCT038 18/10 A2979 RMK AO2